Time;durP1;ratioP1;P1;durP2;ratioP2;P2;SDS_P1;SDS_P2;PMS_P1;PMS_P2;Temp;Humidity;BMP_temperature;BMP_pressure;BME280_temperature;BME280_humidity;BME280_pressure;Samples;Min_cycle;Max_cycle;Signal;HPM_P1;HPM_P2
2021/12/03 00:00:47;;;;;;;;;;;;;;;9.37;54.23;99808.25;5001727;27;111688;-70
2021/12/03 00:03:13;;;;;;;;;;;;;;;9.36;54.01;99812.03;5000939;27;125068;-60
2021/12/03 00:05:39;;;;;;;;;;;;;;;9.36;53.98;99822.78;5002897;27;126684;-70
2021/12/03 00:08:05;;;;;;;;;;;;;;;9.34;54.15;99820.34;5005529;27;97731;-61
2021/12/03 00:10:31;;;;;;;;;;;;;;;9.34;53.69;99828.41;5003832;27;119736;-69
2021/12/03 00:13:00;;;;;;;;;;;;;;;9.32;54.19;99834.09;5006085;27;98319;-61
2021/12/03 00:15:26;;;;;;;;;;;;;;;9.31;53.54;99837.88;5005111;27;97999;-70
2021/12/03 00:17:52;;;;;;;;;;;;;;;9.31;54.18;99845.94;5005474;27;97759;-70
2021/12/03 00:20:18;;;;;;;;;;;;;;;9.31;53.66;99850.47;5005855;27;98576;-70
2021/12/03 00:22:45;;;;;;;;;;;;;;;9.31;53.33;99853.16;5005406;27;118572;-70
2021/12/03 00:25:11;;;;;;;;;;;;;;;9.29;53.49;99858.03;5005441;27;97817;-70
2021/12/03 00:27:37;;;;;;;;;;;;;;;9.28;54.35;99859.13;5004722;27;110094;-70
2021/12/03 00:30:05;;;;;;;;;;;;;;;9.26;54.28;99863.94;5003326;27;128168;-70
2021/12/03 00:32:31;;;;;;;;;;;;;;;9.26;53.89;99880.09;5005043;27;98518;-71
2021/12/03 00:34:57;;;;;;;;;;;;;;;9.26;53.68;99880.09;5004477;27;123072;-61
2021/12/03 00:37:22;;;;;;;;;;;;;;;9.24;53.75;99879.56;4995637;27;115442;-69
2021/12/03 00:39:49;;;;;;;;;;;;;;;9.24;53.91;99887.63;4996725;27;128443;-61
2021/12/03 00:42:17;;;;;;;;;;;;;;;9.23;53.30;99883.31;5004652;27;99073;-70
2021/12/03 00:44:45;;;;;;;;;;;;;;;9.21;53.50;99893.56;5004917;27;98023;-60
2021/12/03 00:47:11;;;;;;;;;;;;;;;9.22;53.66;99903.22;5004493;27;97950;-70
2021/12/03 00:49:39;;;;;;;;;;;;;;;9.20;53.82;99898.13;5004513;27;97612;-62
2021/12/03 00:52:05;;;;;;;;;;;;;;;9.18;54.07;99897.56;5003846;27;98365;-70
2021/12/03 00:54:31;;;;;;;;;;;;;;;9.19;53.39;99909.13;5003647;27;123868;-61
2021/12/03 00:56:57;;;;;;;;;;;;;;;9.18;53.88;99913.72;5004518;27;118254;-66
2021/12/03 00:59:23;;;;;;;;;;;;;;;9.17;53.70;99914.81;5003621;27;127934;-60
2021/12/03 01:01:49;;;;;;;;;;;;;;;9.16;53.92;99918.56;5004047;27;128089;-60
2021/12/03 01:04:15;;;;;;;;;;;;;;;9.16;53.33;99923.94;5003773;27;127455;-61
2021/12/03 01:06:41;;;;;;;;;;;;;;;9.16;53.94;99923.16;5004210;27;116084;-70
2021/12/03 01:09:07;;;;;;;;;;;;;;;9.15;53.30;99926.88;5003361;27;127916;-70
2021/12/03 01:11:33;;;;;;;;;;;;;;;9.14;53.57;99927.97;5004570;27;123638;-70
2021/12/03 01:14:00;;;;;;;;;;;;;;;9.12;53.30;99930.94;5004091;27;97927;-61
2021/12/03 01:16:27;;;;;;;;;;;;;;;9.11;53.34;99926.63;5003971;27;97879;-61
2021/12/03 01:18:53;;;;;;;;;;;;;;;9.12;53.73;99925.56;5003938;27;99235;-70
2021/12/03 01:21:19;;;;;;;;;;;;;;;9.10;53.57;99920.44;5003894;27;107065;-60
2021/12/03 01:23:45;;;;;;;;;;;;;;;9.10;53.29;99919.63;5002862;27;127660;-70
2021/12/03 01:26:11;;;;;;;;;;;;;;;9.09;53.83;99929.59;5003816;27;97790;-60
2021/12/03 01:28:37;;;;;;;;;;;;;;;9.07;53.70;99931.72;5003317;27;98931;-60
2021/12/03 01:31:03;;;;;;;;;;;;;;;9.07;53.70;99931.72;5003509;27;102535;-71
2021/12/03 01:33:29;;;;;;;;;;;;;;;9.06;53.33;99924.75;5003260;27;127567;-61
2021/12/03 01:35:55;;;;;;;;;;;;;;;9.06;53.93;99930.13;4981854;28;118652;-69
2021/12/03 01:38:21;;;;;;;;;;;;;;;9.05;53.93;99928.53;4991059;27;99075;-60
2021/12/03 01:40:47;;;;;;;;;;;;;;;9.04;53.77;99934.97;5003175;27;127260;-70
2021/12/03 01:43:20;;;;;;;;;;;;;;;9.04;53.50;99926.13;5002512;27;128231;-69
2021/12/03 01:45:46;;;;;;;;;;;;;;;9.02;53.50;99931.75;5005446;27;97931;-61
2021/12/03 01:48:12;;;;;;;;;;;;;;;9.02;53.34;99922.88;4980410;28;98329;-61
2021/12/03 01:50:43;;;;;;;;;;;;;;;9.01;53.45;99919.38;5001635;27;124912;-70
2021/12/03 01:53:10;;;;;;;;;;;;;;;9.00;54.05;99922.31;5003181;27;98201;-70
2021/12/03 01:55:36;;;;;;;;;;;;;;;8.99;53.65;99924.22;5003742;27;101098;-70
2021/12/03 01:58:03;;;;;;;;;;;;;;;8.99;53.81;99929.59;4993208;27;127792;-70
2021/12/03 02:00:38;;;;;;;;;;;;;;;8.97;53.56;99926.38;5002536;27;108629;-60
2021/12/03 02:03:06;;;;;;;;;;;;;;;8.98;53.42;99929.88;5003489;27;123002;-70
2021/12/03 02:05:31;;;;;;;;;;;;;;;8.97;53.88;99933.63;5004060;27;97905;-70
2021/12/03 02:07:57;;;;;;;;;;;;;;;8.95;53.45;99925.81;4980243;28;128584;-60
2021/12/03 02:10:23;;;;;;;;;;;;;;;8.95;53.47;99933.88;4999151;27;127408;-60
2021/12/03 02:12:50;;;;;;;;;;;;;;;8.94;54.19;99926.09;5003007;27;100380;-70
2021/12/03 02:15:17;;;;;;;;;;;;;;;8.92;53.01;99921.00;5005190;27;97917;-70
2021/12/03 02:17:43;;;;;;;;;;;;;;;8.93;53.63;99921.81;4994307;27;114901;-70
2021/12/03 02:20:10;;;;;;;;;;;;;;;8.92;54.02;99939.00;5004107;27;104432;-70
2021/12/03 02:22:36;;;;;;;;;;;;;;;8.90;53.39;99938.47;5002419;27;97839;-70
2021/12/03 02:25:03;;;;;;;;;;;;;;;8.91;53.84;99932.00;4985504;27;97952;-70
2021/12/03 02:27:29;;;;;;;;;;;;;;;8.90;53.80;99936.59;4981232;27;118837;-61
2021/12/03 02:29:54;;;;;;;;;;;;;;;8.89;54.08;99945.72;5002162;27;128177;-70
2021/12/03 02:32:20;;;;;;;;;;;;;;;8.88;53.69;99941.41;4984523;27;127552;-70
2021/12/03 02:34:46;;;;;;;;;;;;;;;8.87;53.27;99949.75;4983502;27;118371;-61
2021/12/03 02:37:12;;;;;;;;;;;;;;;8.86;53.97;99948.94;4996104;27;98961;-70
2021/12/03 02:39:38;;;;;;;;;;;;;;;8.85;53.97;99955.41;5002078;27;107061;-70
2021/12/03 02:42:04;;;;;;;;;;;;;;;8.84;53.48;99948.41;5001771;27;123223;-70
2021/12/03 02:44:30;;;;;;;;;;;;;;;8.84;53.15;99951.09;5003322;27;98065;-70
2021/12/03 02:46:56;;;;;;;;;;;;;;;8.83;53.88;99952.97;4997821;27;122124;-70
2021/12/03 02:49:22;;;;;;;;;;;;;;;8.83;53.48;99954.84;4997944;27;115538;-70
2021/12/03 02:51:48;;;;;;;;;;;;;;;8.83;53.56;99958.34;5002680;27;126854;-61
2021/12/03 02:54:14;;;;;;;;;;;;;;;8.82;53.57;99959.44;5003056;27;116971;-69
2021/12/03 02:56:40;;;;;;;;;;;;;;;8.82;53.54;99953.25;4999756;27;126643;-70
2021/12/03 02:59:06;;;;;;;;;;;;;;;8.81;53.68;99949.75;4995688;27;120963;-69
2021/12/03 03:01:32;;;;;;;;;;;;;;;8.81;53.24;99949.75;5002244;27;127886;-70
2021/12/03 03:03:58;;;;;;;;;;;;;;;8.81;53.91;99952.44;5002271;27;116067;-60
2021/12/03 03:06:24;;;;;;;;;;;;;;;8.79;53.71;99953.78;5002179;27;127816;-61
2021/12/03 03:08:50;;;;;;;;;;;;;;;8.79;53.94;99959.97;4992721;27;128246;-61
2021/12/03 03:11:17;;;;;;;;;;;;;;;8.80;53.51;99963.44;5001662;27;121365;-61
2021/12/03 03:13:43;;;;;;;;;;;;;;;8.79;53.65;99962.66;4994772;27;97859;-61
2021/12/03 03:16:09;;;;;;;;;;;;;;;8.78;54.01;99957.53;5002209;27;127548;-70
2021/12/03 03:18:35;;;;;;;;;;;;;;;8.79;54.04;99956.47;4993751;27;106101;-61
2021/12/03 03:21:02;;;;;;;;;;;;;;;8.77;53.65;99953.25;5003432;27;98161;-60
2021/12/03 03:23:28;;;;;;;;;;;;;;;8.77;53.76;99962.13;5003448;27;98372;-70
2021/12/03 03:25:54;;;;;;;;;;;;;;;8.76;53.68;99976.63;5002221;27;121759;-60
2021/12/03 03:28:20;;;;;;;;;;;;;;;8.76;54.13;99954.31;4992150;27;129061;-60
2021/12/03 03:30:46;;;;;;;;;;;;;;;8.76;53.86;99959.69;5001533;27;127431;-70
2021/12/03 03:33:13;;;;;;;;;;;;;;;8.75;53.66;99972.31;5002841;27;100983;-70
2021/12/03 03:35:39;;;;;;;;;;;;;;;8.75;53.62;99966.13;5002563;27;98363;-61
2021/12/03 03:38:05;;;;;;;;;;;;;;;8.74;53.24;99973.41;4993076;27;128030;-60
2021/12/03 03:40:31;;;;;;;;;;;;;;;8.74;53.74;99977.97;5000597;27;123570;-60
2021/12/03 03:42:58;;;;;;;;;;;;;;;8.72;53.89;99982.78;5002370;27;97762;-60
2021/12/03 03:45:24;;;;;;;;;;;;;;;8.72;54.03;99988.16;5002131;27;98128;-70
2021/12/03 03:47:50;;;;;;;;;;;;;;;8.70;53.67;99976.88;4994503;27;98363;-61
2021/12/03 03:50:16;;;;;;;;;;;;;;;8.70;53.50;99971.50;5001541;27;97893;-61
2021/12/03 03:52:43;;;;;;;;;;;;;;;8.68;54.04;99963.69;5002693;27;98351;-69
2021/12/03 03:55:09;;;;;;;;;;;;;;;8.67;53.96;99962.09;5001421;27;115353;-60
2021/12/03 03:57:35;;;;;;;;;;;;;;;8.67;53.99;99966.66;4993629;27;120620;-61
2021/12/03 04:00:02;;;;;;;;;;;;;;;8.65;53.73;99958.88;5001568;27;126968;-70
2021/12/03 04:02:28;;;;;;;;;;;;;;;8.65;53.76;99960.78;5001425;27;111352;-61
2021/12/03 04:04:54;;;;;;;;;;;;;;;8.64;53.74;99967.19;5001240;27;128952;-60
2021/12/03 04:07:20;;;;;;;;;;;;;;;8.63;53.46;99965.59;4992369;27;114217;-61
2021/12/03 04:09:46;;;;;;;;;;;;;;;8.62;53.71;99972.84;4991799;27;126715;-60
2021/12/03 04:12:12;;;;;;;;;;;;;;;8.63;53.56;99960.22;5001937;27;97594;-70
2021/12/03 04:14:38;;;;;;;;;;;;;;;8.62;53.77;99966.66;5001404;27;128389;-61
2021/12/03 04:17:04;;;;;;;;;;;;;;;8.60;53.63;99973.09;4994763;27;128052;-70
2021/12/03 04:19:30;;;;;;;;;;;;;;;8.60;53.86;99972.28;4997653;27;127621;-70
2021/12/03 04:21:56;;;;;;;;;;;;;;;8.59;53.13;99979.53;5001602;27;107138;-70
2021/12/03 04:24:22;;;;;;;;;;;;;;;8.58;53.77;99979.81;5001676;27;98248;-70
2021/12/03 04:26:48;;;;;;;;;;;;;;;8.60;53.44;99977.66;4997399;27;127248;-60
2021/12/03 04:29:14;;;;;;;;;;;;;;;8.59;53.52;99976.84;4995904;27;123658;-69
2021/12/03 04:31:40;;;;;;;;;;;;;;;8.59;53.60;99976.06;5000841;27;116807;-60
2021/12/03 04:34:06;;;;;;;;;;;;;;;8.57;53.50;99975.53;5000615;27;127099;-60
2021/12/03 04:36:32;;;;;;;;;;;;;;;8.57;53.40;99979.03;4999078;27;125789;-70
2021/12/03 04:38:57;;;;;;;;;;;;;;;8.57;53.37;99986.28;4961742;28;128057;-70
2021/12/03 04:41:23;;;;;;;;;;;;;;;8.57;53.73;99988.97;4978658;27;118155;-70
2021/12/03 04:43:49;;;;;;;;;;;;;;;8.56;53.71;99984.63;4982300;27;127176;-70
2021/12/03 04:46:15;;;;;;;;;;;;;;;8.56;53.13;99990.81;5000845;27;127546;-70
2021/12/03 04:48:41;;;;;;;;;;;;;;;8.56;53.88;99987.31;4973193;27;118551;-70
2021/12/03 04:51:07;;;;;;;;;;;;;;;8.56;53.55;99993.50;5003495;27;97887;-60
2021/12/03 04:53:33;;;;;;;;;;;;;;;8.56;53.96;99998.06;5004989;27;98474;-70
2021/12/03 04:55:59;;;;;;;;;;;;;;;8.56;53.23;99998.88;5003484;27;128155;-67
2021/12/03 04:58:25;;;;;;;;;;;;;;;8.55;53.98;100005.31;4995161;27;124949;-70
2021/12/03 05:00:53;;;;;;;;;;;;;;;8.55;53.37;100018.75;4984905;27;116824;-60
2021/12/03 05:03:19;;;;;;;;;;;;;;;8.56;53.43;100019.56;5004524;27;98181;-60
2021/12/03 05:05:54;;;;;;;;;;;;;;;8.56;53.98;100020.38;5004569;27;111219;-70
2021/12/03 05:08:20;;;;;;;;;;;;;;;8.56;53.79;100019.56;4996148;27;97928;-70
2021/12/03 05:10:46;;;;;;;;;;;;;;;8.56;53.57;100024.94;5004486;27;104950;-70
2021/12/03 05:13:15;;;;;;;;;;;;;;;8.55;53.42;100021.44;5004636;27;99045;-70
2021/12/03 05:15:41;;;;;;;;;;;;;;;8.55;53.67;100021.44;5004800;27;98813;-70
2021/12/03 05:18:08;;;;;;;;;;;;;;;8.56;53.72;100035.69;4996551;27;97828;-68
2021/12/03 05:20:34;;;;;;;;;;;;;;;8.56;53.73;100038.38;5003723;27;109742;-70
2021/12/03 05:23:00;;;;;;;;;;;;;;;8.54;54.00;100035.97;4985907;27;98098;-61
2021/12/03 05:25:26;;;;;;;;;;;;;;;8.54;53.88;100038.66;4985689;27;97817;-70
2021/12/03 05:27:52;;;;;;;;;;;;;;;8.55;53.54;100036.75;4994772;27;108970;-70
2021/12/03 05:30:18;;;;;;;;;;;;;;;8.53;53.69;100042.41;5004608;27;97869;-60
2021/12/03 05:32:44;;;;;;;;;;;;;;;8.54;53.79;100046.69;5004467;27;98527;-70
2021/12/03 05:35:10;;;;;;;;;;;;;;;8.53;53.58;100049.66;5003430;27;98949;-60
2021/12/03 05:37:36;;;;;;;;;;;;;;;8.53;53.89;100052.34;4976393;27;98601;-70
2021/12/03 05:40:03;;;;;;;;;;;;;;;8.53;53.82;100044.28;5006213;27;116876;-70
2021/12/03 05:42:29;;;;;;;;;;;;;;;8.52;54.09;100039.97;5004426;27;112889;-70
2021/12/03 05:44:55;;;;;;;;;;;;;;;8.51;54.34;100047.22;5005921;27;111590;-70
2021/12/03 05:47:21;;;;;;;;;;;;;;;8.51;54.08;100052.59;4996327;27;98279;-70
2021/12/03 05:49:47;;;;;;;;;;;;;;;8.52;53.62;100056.09;5005204;27;97853;-69
2021/12/03 05:52:13;;;;;;;;;;;;;;;8.52;53.58;100058.78;5003659;27;126602;-70
2021/12/03 05:54:39;;;;;;;;;;;;;;;8.52;54.16;100056.09;5003071;27;126820;-71
2021/12/03 05:57:05;;;;;;;;;;;;;;;8.51;53.86;100063.34;4976226;28;127282;-69
2021/12/03 05:59:31;;;;;;;;;;;;;;;8.51;53.61;100057.97;4999602;27;112847;-70
2021/12/03 06:01:57;;;;;;;;;;;;;;;8.49;53.67;100057.44;5003815;27;101086;-69
2021/12/03 06:04:23;;;;;;;;;;;;;;;8.51;54.21;100066.03;5003175;27;128201;-69
2021/12/03 06:06:49;;;;;;;;;;;;;;;8.50;53.85;100064.41;5000019;27;110008;-70
2021/12/03 06:09:15;;;;;;;;;;;;;;;8.51;53.87;100066.03;4999099;27;115970;-70
2021/12/03 06:11:41;;;;;;;;;;;;;;;8.50;54.12;100067.09;5002611;27;126905;-70
2021/12/03 06:14:07;;;;;;;;;;;;;;;8.51;54.09;100078.66;5003334;27;123871;-70
2021/12/03 06:16:33;;;;;;;;;;;;;;;8.50;54.25;100074.38;4985237;27;99184;-70
2021/12/03 06:18:58;;;;;;;;;;;;;;;8.51;54.08;100086.72;4981992;28;116405;-69
2021/12/03 06:21:24;;;;;;;;;;;;;;;8.50;53.77;100080.53;4964508;27;129153;-70
2021/12/03 06:23:51;;;;;;;;;;;;;;;8.50;53.73;100082.44;5003495;27;127663;-70
2021/12/03 06:26:16;;;;;;;;;;;;;;;8.50;54.05;100077.84;5004149;27;127150;-69
2021/12/03 06:28:42;;;;;;;;;;;;;;;8.50;53.58;100077.06;4996912;27;115800;-70
2021/12/03 06:31:08;;;;;;;;;;;;;;;8.50;54.10;100077.84;4984237;27;129176;-70
2021/12/03 06:33:34;;;;;;;;;;;;;;;8.50;53.95;100079.75;5003425;27;129130;-70
2021/12/03 06:36:00;;;;;;;;;;;;;;;8.50;54.18;100091.28;5004460;27;100786;-70
2021/12/03 06:38:26;;;;;;;;;;;;;;;8.49;54.26;100092.38;4996296;27;97814;-71
2021/12/03 06:40:52;;;;;;;;;;;;;;;8.51;54.21;100094.78;5004200;27;97855;-70
2021/12/03 06:43:18;;;;;;;;;;;;;;;8.51;54.03;100102.84;5002387;27;127821;-67
2021/12/03 06:45:44;;;;;;;;;;;;;;;8.50;54.33;100102.03;5002580;27;126271;-67
2021/12/03 06:48:10;;;;;;;;;;;;;;;8.50;54.06;100107.41;4995360;27;97799;-70
2021/12/03 06:50:39;;;;;;;;;;;;;;;8.52;54.30;100107.13;4984934;27;98664;-70
2021/12/03 06:53:11;;;;;;;;;;;;;;;8.52;54.09;100107.13;5002575;27;98374;-60
2021/12/03 06:55:46;;;;;;;;;;;;;;;8.53;54.07;100108.78;5003741;27;97853;-70
2021/12/03 06:58:16;;;;;;;;;;;;;;;8.55;54.10;100112.00;4995583;27;97907;-60
2021/12/03 07:00:43;;;;;;;;;;;;;;;8.57;54.22;100116.03;5001937;27;123261;-59
2021/12/03 07:03:09;;;;;;;;;;;;;;;8.57;53.58;100118.72;5002916;27;100301;-69
2021/12/03 07:05:35;;;;;;;;;;;;;;;8.59;53.87;100129.19;5003466;27;124126;-70
2021/12/03 07:08:01;;;;;;;;;;;;;;;8.60;54.26;100128.13;4994901;27;101294;-70
2021/12/03 07:10:27;;;;;;;;;;;;;;;8.63;53.77;100126.81;5002191;27;127610;-69
2021/12/03 07:12:52;;;;;;;;;;;;;;;8.64;54.29;100123.84;5002470;27;98431;-69
2021/12/03 07:15:18;;;;;;;;;;;;;;;8.66;54.14;100124.41;5002516;27;98099;-69
2021/12/03 07:17:45;;;;;;;;;;;;;;;8.68;53.62;100134.88;4993470;27;97839;-70
2021/12/03 07:20:11;;;;;;;;;;;;;;;8.70;54.03;100128.19;5000428;27;99230;-70
2021/12/03 07:22:37;;;;;;;;;;;;;;;8.73;53.87;100140.28;5000454;27;98356;-70
2021/12/03 07:25:04;;;;;;;;;;;;;;;8.76;54.12;100137.88;4999116;27;109368;-69
2021/12/03 07:27:30;;;;;;;;;;;;;;;8.81;53.78;100131.72;4992193;27;98097;-69
2021/12/03 07:29:56;;;;;;;;;;;;;;;8.87;53.58;100136.03;4998986;27;125444;-70
2021/12/03 07:32:22;;;;;;;;;;;;;;;8.92;53.89;100140.59;4999237;27;98514;-70
2021/12/03 07:34:48;;;;;;;;;;;;;;;8.95;53.64;100127.44;4999759;27;98157;-69
2021/12/03 07:37:14;;;;;;;;;;;;;;;9.03;53.63;100137.69;4991345;27;115999;-69
2021/12/03 07:39:40;;;;;;;;;;;;;;;9.12;53.31;100129.94;4998512;27;116916;-69
2021/12/03 07:42:07;;;;;;;;;;;;;;;9.24;53.68;100140.44;4998699;27;98839;-69
2021/12/03 07:44:33;;;;;;;;;;;;;;;9.36;53.28;100148.28;5000135;27;97845;-70
2021/12/03 07:46:58;;;;;;;;;;;;;;;9.43;53.23;100146.94;4994774;27;97863;-69
2021/12/03 07:49:26;;;;;;;;;;;;;;;9.57;53.16;100149.91;4996683;27;98412;-70
2021/12/03 07:51:52;;;;;;;;;;;;;;;9.76;52.91;100152.88;4999125;27;98123;-69
2021/12/03 07:54:18;;;;;;;;;;;;;;;9.95;52.28;100162.03;4999038;27;97828;-69
2021/12/03 07:56:44;;;;;;;;;;;;;;;10.11;52.82;100151.25;4996995;27;98019;-69
2021/12/03 07:59:10;;;;;;;;;;;;;;;10.38;52.28;100149.06;4992954;27;126625;-70
2021/12/03 08:01:36;;;;;;;;;;;;;;;10.95;51.39;100153.16;4999804;27;126775;-69
2021/12/03 08:04:02;;;;;;;;;;;;;;;11.57;51.25;100150.09;4998150;27;125213;-69
2021/12/03 08:06:28;;;;;;;;;;;;;;;12.06;50.51;100151.88;4999070;27;109067;-69
2021/12/03 08:08:54;;;;;;;;;;;;;;;12.61;49.89;100149.69;4992337;27;98384;-69
2021/12/03 08:11:20;;;;;;;;;;;;;;;13.09;49.53;100150.44;4999183;27;127937;-71
2021/12/03 08:13:46;;;;;;;;;;;;;;;13.44;49.52;100161.88;4979037;27;125528;-69
2021/12/03 08:16:12;;;;;;;;;;;;;;;13.79;49.73;100159.72;4981474;27;117315;-69
2021/12/03 08:18:38;;;;;;;;;;;;;;;14.21;49.14;100170.38;4990506;27;107826;-70
2021/12/03 08:21:04;;;;;;;;;;;;;;;14.87;48.65;100162.91;4980078;27;117362;-70
2021/12/03 08:23:30;;;;;;;;;;;;;;;15.78;47.69;100153.81;4991535;27;98157;-70
2021/12/03 08:25:55;;;;;;;;;;;;;;;16.89;46.02;100157.41;4982136;27;118013;-70
2021/12/03 08:28:21;;;;;;;;;;;;;;;17.97;44.30;100163.06;4993916;27;128118;-69
2021/12/03 08:30:47;;;;;;;;;;;;;;;18.57;43.59;100159.34;5002753;27;106076;-69
2021/12/03 08:33:13;;;;;;;;;;;;;;;18.89;43.44;100159.84;5002893;27;98509;-69
2021/12/03 08:35:39;;;;;;;;;;;;;;;19.06;43.90;100164.41;5004038;27;97720;-69
2021/12/03 08:38:05;;;;;;;;;;;;;;;19.12;43.98;100161.16;4993443;27;128730;-70
2021/12/03 08:40:31;;;;;;;;;;;;;;;19.10;44.55;100159.91;5003245;27;98199;-69
2021/12/03 08:42:57;;;;;;;;;;;;;;;19.23;44.86;100160.78;5002200;27;98759;-70
2021/12/03 08:45:24;;;;;;;;;;;;;;;19.31;45.05;100171.63;5002248;27;97864;-69
2021/12/03 08:47:52;;;;;;;;;;;;;;;19.25;45.36;100169.41;4975581;27;98478;-69
2021/12/03 08:50:27;;;;;;;;;;;;;;;19.28;45.62;100169.56;5003384;27;98389;-70
2021/12/03 08:55:33;;;;;;;;;;;;;;;19.34;46.28;100170.19;5000402;27;97772;-69
2021/12/03 08:57:59;;;;;;;;;;;;;;;19.37;46.53;100166.75;4988616;27;129034;-70
2021/12/03 09:00:25;;;;;;;;;;;;;;;19.35;46.59;100171.75;5002797;27;100928;-70
2021/12/03 09:02:51;;;;;;;;;;;;;;;19.12;46.97;100182.22;5000559;27;128098;-69
2021/12/03 09:05:17;;;;;;;;;;;;;;;18.82;47.43;100176.78;5003026;27;117975;-69
2021/12/03 09:07:43;;;;;;;;;;;;;;;18.71;47.68;100181.00;4994224;27;98788;-69
2021/12/03 09:10:13;;;;;;;;;;;;;;;18.65;47.80;100179.53;4960082;27;129363;-68
2021/12/03 09:12:39;;;;;;;;;;;;;;;18.57;47.79;100181.16;4984488;27;98251;-69
2021/12/03 09:15:09;;;;;;;;;;;;;;;18.24;48.35;100194.63;4985083;27;113584;-69
2021/12/03 09:17:42;;;;;;;;;;;;;;;18.11;48.52;100192.88;4994368;27;98161;-69
2021/12/03 09:23:04;;;;;;;;;;;;;;;17.75;48.89;100185.88;5000929;27;98026;-70
2021/12/03 09:25:41;;;;;;;;;;;;;;;17.56;49.11;100188.06;5003082;27;98015;-68
2021/12/03 09:28:12;;;;;;;;;;;;;;;17.38;49.38;100192.72;4975606;27;100152;-70
2021/12/03 09:30:40;;;;;;;;;;;;;;;17.29;49.66;100183.72;5003516;27;98720;-69
2021/12/03 09:33:08;;;;;;;;;;;;;;;17.14;49.69;100188.53;4983035;27;98024;-69
2021/12/03 09:35:39;;;;;;;;;;;;;;;16.98;49.92;100176.50;5003095;27;97858;-68
2021/12/03 09:38:05;;;;;;;;;;;;;;;16.83;50.14;100175.00;4992211;27;98681;-68
2021/12/03 09:40:34;;;;;;;;;;;;;;;16.71;50.31;100160.38;5001271;27;128241;-68
2021/12/03 09:43:01;;;;;;;;;;;;;;;16.55;50.48;100163.53;5001071;27;97984;-68
2021/12/03 09:45:27;;;;;;;;;;;;;;;16.36;50.64;100168.41;5001903;27;105985;-68
2021/12/03 09:47:53;;;;;;;;;;;;;;;16.18;51.05;100159.34;4974716;27;105788;-67
2021/12/03 09:50:19;;;;;;;;;;;;;;;15.99;51.13;100159.53;4982639;27;127425;-68
2021/12/03 09:55:15;;;;;;;;;;;;;;;15.64;51.46;100155.75;4999203;27;97853;-67
2021/12/03 10:00:51;;;;;;;;;;;;;;;15.22;51.78;100163.25;4967773;27;98280;-67
2021/12/03 10:03:32;;;;;;;;;;;;;;;15.01;52.16;100160.16;5002133;27;97836;-68
2021/12/03 10:20:33;;;;;;;;;;;;;;;13.90;52.90;100163.88;4995376;27;97897;-68
2021/12/03 10:31:40;;;;;;;;;;;;;;;13.50;52.66;100149.88;4997409;27;98041;-68
2021/12/03 10:49:29;;;;;;;;;;;;;;;12.86;53.34;100154.78;4993260;27;97683;-69
2021/12/03 10:52:03;;;;;;;;;;;;;;;12.81;53.36;100154.03;5001751;27;98231;-70
2021/12/03 11:03:06;;;;;;;;;;;;;;;12.83;52.88;100155.38;4998028;27;98155;-68
2021/12/03 11:05:41;;;;;;;;;;;;;;;12.85;53.06;100155.91;5001595;27;99062;-69
2021/12/03 11:17:05;;;;;;;;;;;;;;;12.71;53.30;100152.28;4996922;27;98105;-69
2021/12/03 11:20:09;;;;;;;;;;;;;;;12.67;53.46;100145.81;4998189;27;97872;-69
2021/12/03 11:30:33;;;;;;;;;;;;;;;12.53;53.70;100138.41;4962159;27;101597;-68
2021/12/03 11:36:27;;;;;;;;;;;;;;;12.44;53.68;100139.31;4998905;27;98072;-69
2021/12/03 11:50:28;;;;;;;;;;;;;;;12.15;54.03;100144.78;4994847;27;98367;-68
2021/12/03 11:53:26;;;;;;;;;;;;;;;12.07;53.95;100143.50;4995749;27;99530;-69
2021/12/03 12:05:12;;;;;;;;;;;;;;;11.96;53.81;100137.38;4993233;27;97952;-67
2021/12/03 12:48:09;;;;;;;;;;;;;;;12.49;53.60;100142.78;4994345;27;98460;-60
2021/12/03 13:37:30;;;;;;;;;;;;;;;12.26;54.10;100105.72;5000436;27;98702;-67
2021/12/03 14:08:52;;;;;;;;;;;;;;;11.67;54.75;100098.69;4962424;27;99628;-69
2021/12/03 14:39:11;;;;;;;;;;;;;;;11.01;55.53;100108.09;4998482;27;98040;-59
2021/12/03 14:55:34;;;;;;;;;;;;;;;10.77;55.56;100100.66;4991577;27;98279;-68
2021/12/03 14:58:08;;;;;;;;;;;;;;;10.76;55.49;100111.72;4991885;27;98390;-59
2021/12/03 15:00:49;;;;;;;;;;;;;;;10.73;55.11;100112.28;4982649;27;98454;-69
2021/12/03 15:08:36;;;;;;;;;;;;;;;10.65;55.61;100108.28;4990692;27;97860;-59
2021/12/03 15:33:34;;;;;;;;;;;;;;;10.48;55.19;100121.25;4981334;27;98558;-60
2021/12/03 15:36:06;;;;;;;;;;;;;;;10.48;55.05;100110.47;4999148;27;98033;-68
2021/12/03 15:38:46;;;;;;;;;;;;;;;10.46;55.14;100108.06;4991564;27;98783;-59
2021/12/03 15:41:43;;;;;;;;;;;;;;;10.45;55.15;100121.81;4998864;27;97940;-69
2021/12/03 15:55:24;;;;;;;;;;;;;;;10.39;55.17;100112.94;4998408;27;120520;-59
2021/12/03 16:03:36;;;;;;;;;;;;;;;10.37;55.05;100112.41;4990114;27;97894;-69
2021/12/03 16:06:27;;;;;;;;;;;;;;;10.38;54.56;100119.41;4992321;27;97871;-68
2021/12/03 16:08:55;;;;;;;;;;;;;;;10.38;54.95;100124.00;4993574;27;98128;-59
2021/12/03 16:27:36;;;;;;;;;;;;;;;10.34;54.19;100083.34;4959325;28;98248;-69
2021/12/03 16:49:29;;;;;;;;;;;;;;;10.34;54.74;100061.78;4992257;27;98064;-68
2021/12/03 16:51:39;;;;;;;;;;;;;;;10.32;54.23;100053.94;4986946;27;98025;-69
2021/12/03 16:54:08;;;;;;;;;;;;;;;10.34;54.39;100056.38;4984001;27;98317;-59
2021/12/03 16:56:35;;;;;;;;;;;;;;;10.32;54.48;100055.84;4999882;27;98851;-69
2021/12/03 16:59:01;;;;;;;;;;;;;;;10.34;54.19;100050.19;4995061;27;98145;-68
2021/12/03 17:01:40;;;;;;;;;;;;;;;10.34;54.17;100050.19;5002564;27;98117;-69
2021/12/03 17:04:45;;;;;;;;;;;;;;;10.33;54.75;100052.06;5001365;27;98641;-59
2021/12/03 17:15:49;;;;;;;;;;;;;;;10.32;54.36;100037.78;4997694;27;98192;-60
2021/12/03 17:29:18;;;;;;;;;;;;;;;10.29;54.36;100059.88;4996677;27;101092;-59
2021/12/03 17:46:12;;;;;;;;;;;;;;;10.19;54.23;100045.63;4957453;28;98109;-59
2021/12/03 17:48:43;;;;;;;;;;;;;;;10.17;54.49;100042.41;4940252;28;99681;-59
2021/12/03 17:51:39;;;;;;;;;;;;;;;10.16;54.03;100044.28;4969804;27;98636;-60
2021/12/03 17:54:25;;;;;;;;;;;;;;;10.16;53.81;100043.47;5004547;27;98282;-59
2021/12/03 17:56:52;;;;;;;;;;;;;;;10.15;53.92;100044.56;5000185;27;98037;-59
2021/12/03 18:07:20;;;;;;;;;;;;;;;10.12;53.82;100039.72;4978676;28;97970;-68
2021/12/03 18:10:01;;;;;;;;;;;;;;;10.11;53.64;100043.50;4989550;27;98418;-68
2021/12/03 18:13:01;;;;;;;;;;;;;;;10.11;54.46;100035.44;5004594;27;98418;-59
2021/12/03 18:45:56;;;;;;;;;;;;;;;9.96;53.96;99996.69;4999531;27;97811;-69
2021/12/03 18:51:18;;;;;;;;;;;;;;;9.94;54.40;99992.66;5001184;27;97784;-68
2021/12/03 18:58:59;;;;;;;;;;;;;;;9.89;54.37;99985.41;4972728;27;98012;-59
2021/12/03 19:01:30;;;;;;;;;;;;;;;9.88;53.72;99978.41;5004396;27;98090;-69
2021/12/03 19:06:26;;;;;;;;;;;;;;;9.87;54.06;99959.84;4999759;27;98731;-60
2021/12/03 19:08:59;;;;;;;;;;;;;;;9.85;54.00;99949.34;4995263;27;97981;-59
2021/12/03 19:11:37;;;;;;;;;;;;;;;9.83;54.21;99946.94;5003027;27;97997;-59
2021/12/03 19:14:03;;;;;;;;;;;;;;;9.83;54.13;99925.41;5002411;27;99206;-68
2021/12/03 19:16:29;;;;;;;;;;;;;;;9.82;54.31;99926.47;5002974;27;98137;-69
2021/12/03 19:18:57;;;;;;;;;;;;;;;9.82;54.46;99920.25;4996607;27;97886;-60
2021/12/03 19:21:25;;;;;;;;;;;;;;;9.80;53.84;99909.00;4984587;27;98005;-59
2021/12/03 19:23:57;;;;;;;;;;;;;;;9.80;54.28;99914.38;5001861;27;98913;-60
2021/12/03 19:26:23;;;;;;;;;;;;;;;9.79;54.00;99910.06;5003599;27;98570;-68
2021/12/03 19:28:49;;;;;;;;;;;;;;;9.77;53.85;99910.31;4994835;27;97828;-60
2021/12/03 19:31:16;;;;;;;;;;;;;;;9.76;53.71;99905.22;5002541;27;97839;-59
2021/12/03 19:33:42;;;;;;;;;;;;;;;9.76;54.08;99897.97;5002254;27;99036;-59
2021/12/03 19:36:09;;;;;;;;;;;;;;;9.74;53.85;99889.34;5000735;27;128658;-59
2021/12/03 19:38:37;;;;;;;;;;;;;;;9.73;53.74;99895.00;4985037;27;98172;-60
2021/12/03 19:41:13;;;;;;;;;;;;;;;9.73;54.02;99884.25;5001807;27;97828;-68
2021/12/03 19:43:44;;;;;;;;;;;;;;;9.71;53.87;99867.59;5002648;27;98534;-69
2021/12/03 19:46:13;;;;;;;;;;;;;;;9.70;53.53;99869.44;5003160;27;98791;-59